Time;durP1;ratioP1;P1;durP2;ratioP2;P2;SDS_P1;SDS_P2;PMS_P1;PMS_P2;Temp;Humidity;BMP_temperature;BMP_pressure;BME280_temperature;BME280_humidity;BME280_pressure;Samples;Min_cycle;Max_cycle;Signal;HPM_P1;HPM_P2
2022/04/12 00:00:05;;;;;;;7.23;1.90;;;;;;;;;;5094468;28;20210;-75
2022/04/12 00:02:32;;;;;;;4.13;1.63;;;;;;;;;;5101530;28;20194;-76
2022/04/12 00:04:59;;;;;;;4.77;1.80;;;;;;;;;;5093386;28;20240;-75
2022/04/12 00:07:27;;;;;;;6.23;2.13;;;;;;;;;;5093252;28;20222;-75
2022/04/12 00:09:54;;;;;;;5.93;2.03;;;;;;;;;;5110511;28;20565;-76
2022/04/12 00:12:21;;;;;;;5.27;1.80;;;;;;;;;;5112282;28;20293;-76
2022/04/12 00:14:48;;;;;;;4.30;1.77;;;;;;;;;;5113774;28;20285;-75
2022/04/12 00:20:02;;;;;;;4.57;1.70;;;;;;;;;;5092903;28;20197;-76
2022/04/12 00:22:30;;;;;;;4.37;1.83;;;;;;;;;;5093307;28;20232;-75
2022/04/12 00:24:59;;;;;;;6.20;2.33;;;;;;;;;;5111699;28;20221;-75
2022/04/12 00:27:27;;;;;;;4.00;1.87;;;;;;;;;;5112722;28;20581;-75
2022/04/12 00:29:54;;;;;;;4.27;1.90;;;;;;;;;;5113776;28;20224;-75
2022/04/12 00:32:23;;;;;;;6.87;2.03;;;;;;;;;;5113287;28;20297;-75
2022/04/12 00:34:50;;;;;;;7.17;1.60;;;;;;;;;;5113488;28;20673;-75
2022/04/12 00:37:17;;;;;;;5.53;1.80;;;;;;;;;;5102374;28;20673;-75
2022/04/12 00:39:44;;;;;;;5.70;2.00;;;;;;;;;;5102874;28;20281;-76
2022/04/12 00:42:11;;;;;;;5.70;2.20;;;;;;;;;;5107346;28;20294;-75
2022/04/12 00:44:39;;;;;;;5.63;1.87;;;;;;;;;;5113217;27;20229;-75
2022/04/12 00:47:06;;;;;;;7.63;2.17;;;;;;;;;;5113363;28;20281;-75
2022/04/12 00:49:35;;;;;;;6.07;1.90;;;;;;;;;;5112967;28;20198;-75
2022/04/12 00:52:02;;;;;;;3.87;2.00;;;;;;;;;;5113304;28;20271;-75
2022/04/12 00:54:29;;;;;;;5.80;1.93;;;;;;;;;;5112679;28;20229;-81
2022/04/12 00:56:57;;;;;;;6.97;2.17;;;;;;;;;;5113209;28;20308;-82
2022/04/12 00:59:25;;;;;;;6.37;2.13;;;;;;;;;;5112309;28;20225;-81
2022/04/12 01:01:52;;;;;;;5.57;2.20;;;;;;;;;;5112027;28;20198;-82
2022/04/12 01:04:19;;;;;;;5.93;2.17;;;;;;;;;;5112258;28;20262;-82
2022/04/12 01:06:48;;;;;;;6.47;2.20;;;;;;;;;;5105929;28;20190;-81
2022/04/12 01:09:16;;;;;;;5.87;2.30;;;;;;;;;;5091827;28;20745;-81
2022/04/12 01:11:48;;;;;;;5.00;2.10;;;;;;;;;;5090977;28;20206;-81
2022/04/12 01:14:15;;;;;;;7.63;2.23;;;;;;;;;;5092359;28;20198;-82
2022/04/12 01:16:43;;;;;;;5.97;2.50;;;;;;;;;;5092313;28;20261;-81
2022/04/12 01:19:10;;;;;;;4.77;2.20;;;;;;;;;;5092282;28;20248;-81
2022/04/12 01:21:40;;;;;;;6.07;2.30;;;;;;;;;;5092102;28;20198;-82
2022/04/12 01:24:09;;;;;;;4.50;1.97;;;;;;;;;;5104030;28;20232;-81
2022/04/12 01:26:36;;;;;;;4.50;2.00;;;;;;;;;;5112587;28;20620;-82
2022/04/12 01:29:03;;;;;;;6.50;2.27;;;;;;;;;;5112622;28;20225;-82
2022/04/12 01:31:30;;;;;;;5.90;2.10;;;;;;;;;;5112139;28;20241;-82
2022/04/12 01:33:58;;;;;;;5.63;2.10;;;;;;;;;;5112571;28;20250;-82
2022/04/12 01:36:25;;;;;;;5.67;2.33;;;;;;;;;;5098584;28;20234;-81
2022/04/12 01:38:52;;;;;;;7.27;2.20;;;;;;;;;;5092050;28;20229;-81
2022/04/12 01:41:21;;;;;;;5.90;2.30;;;;;;;;;;5091260;28;20286;-82
2022/04/12 01:43:48;;;;;;;4.57;2.37;;;;;;;;;;5092346;28;20229;-82
2022/04/12 01:46:15;;;;;;;7.07;2.60;;;;;;;;;;5092088;28;20245;-81
2022/04/12 01:48:42;;;;;;;5.33;2.40;;;;;;;;;;5092172;28;20298;-81
2022/04/12 01:51:10;;;;;;;5.40;2.10;;;;;;;;;;5097888;28;20202;-82
2022/04/12 01:53:37;;;;;;;8.33;2.60;;;;;;;;;;5091634;28;20202;-82
2022/04/12 01:56:04;;;;;;;5.27;2.23;;;;;;;;;;5092110;28;20214;-82
2022/04/12 01:58:34;;;;;;;4.73;2.40;;;;;;;;;;5092004;28;20222;-81
2022/04/12 02:01:02;;;;;;;7.80;2.80;;;;;;;;;;5092185;28;20231;-81
2022/04/12 02:03:29;;;;;;;5.23;2.67;;;;;;;;;;5092059;28;20285;-82
2022/04/12 02:05:56;;;;;;;6.17;2.53;;;;;;;;;;5110618;28;20289;-81
2022/04/12 02:08:23;;;;;;;4.97;2.37;;;;;;;;;;5111949;28;20689;-81
2022/04/12 02:10:51;;;;;;;6.17;2.70;;;;;;;;;;5112116;28;20205;-81
2022/04/12 02:13:18;;;;;;;7.10;2.93;;;;;;;;;;5108666;28;20293;-81
2022/04/12 02:15:46;;;;;;;8.00;2.60;;;;;;;;;;5095354;28;20645;-81
2022/04/12 02:18:14;;;;;;;6.77;2.47;;;;;;;;;;5095915;28;20268;-82
2022/04/12 02:20:41;;;;;;;8.07;2.50;;;;;;;;;;5095654;28;20225;-82
2022/04/12 02:23:08;;;;;;;4.83;2.30;;;;;;;;;;5094917;28;20626;-81
2022/04/12 02:25:35;;;;;;;5.93;2.20;;;;;;;;;;5095943;28;20239;-82
2022/04/12 02:28:02;;;;;;;5.57;2.33;;;;;;;;;;5095460;28;20210;-82
2022/04/12 02:30:29;;;;;;;5.03;2.27;;;;;;;;;;5095775;28;20289;-82
2022/04/12 02:32:59;;;;;;;6.20;2.57;;;;;;;;;;5094843;28;20277;-81
2022/04/12 02:35:26;;;;;;;5.63;2.33;;;;;;;;;;5094917;28;20573;-81
2022/04/12 02:37:54;;;;;;;4.93;2.10;;;;;;;;;;5099361;28;20754;-81
2022/04/12 02:40:21;;;;;;;7.20;2.27;;;;;;;;;;5115999;28;20250;-81
2022/04/12 02:42:48;;;;;;;5.03;2.13;;;;;;;;;;5115193;28;20347;-82
2022/04/12 02:45:16;;;;;;;4.73;2.23;;;;;;;;;;5115571;28;20206;-82
2022/04/12 02:47:43;;;;;;;8.03;2.70;;;;;;;;;;5115651;28;20281;-82
2022/04/12 02:50:12;;;;;;;8.80;2.43;;;;;;;;;;5100159;28;20277;-82
2022/04/12 02:52:39;;;;;;;6.73;2.30;;;;;;;;;;5095004;28;20285;-82
2022/04/12 02:55:07;;;;;;;7.37;2.47;;;;;;;;;;5095147;28;20234;-82
2022/04/12 02:57:34;;;;;;;5.17;2.47;;;;;;;;;;5094600;28;20349;-82
2022/04/12 03:00:01;;;;;;;4.93;2.10;;;;;;;;;;5094421;28;20252;-82
2022/04/12 03:02:28;;;;;;;5.60;2.50;;;;;;;;;;5094187;28;20229;-82
2022/04/12 03:04:55;;;;;;;6.17;2.50;;;;;;;;;;5094574;28;20230;-83
2022/04/12 03:07:24;;;;;;;5.10;2.30;;;;;;;;;;5094620;28;20281;-82
2022/04/12 03:09:51;;;;;;;5.87;2.10;;;;;;;;;;5094334;28;20283;-82
2022/04/12 03:12:19;;;;;;;5.90;2.07;;;;;;;;;;5094019;28;20710;-82
2022/04/12 03:14:46;;;;;;;4.67;2.20;;;;;;;;;;5094667;28;20289;-82
2022/04/12 03:17:13;;;;;;;4.80;1.83;;;;;;;;;;5094552;28;20253;-82
2022/04/12 03:19:40;;;;;;;6.63;1.97;;;;;;;;;;5094592;28;20290;-82
2022/04/12 03:22:08;;;;;;;3.83;2.07;;;;;;;;;;5094288;28;20285;-81
2022/04/12 03:24:37;;;;;;;6.90;2.40;;;;;;;;;;5094339;28;20226;-82
2022/04/12 03:27:04;;;;;;;5.57;2.40;;;;;;;;;;5094537;28;20198;-82
2022/04/12 03:29:31;;;;;;;6.90;2.40;;;;;;;;;;5094265;28;20984;-83
2022/04/12 03:31:59;;;;;;;4.67;2.23;;;;;;;;;;5079770;28;20223;-82
2022/04/12 03:34:26;;;;;;;7.10;2.33;;;;;;;;;;5073947;28;20201;-82
2022/04/12 03:36:53;;;;;;;5.50;2.30;;;;;;;;;;5073787;28;20230;-82
2022/04/12 03:39:21;;;;;;;7.03;2.40;;;;;;;;;;5074058;28;20285;-82
2022/04/12 03:41:51;;;;;;;7.30;2.30;;;;;;;;;;5072403;28;20686;-82
2022/04/12 03:44:19;;;;;;;5.70;2.30;;;;;;;;;;5080554;28;20585;-82
2022/04/12 03:46:46;;;;;;;7.90;2.53;;;;;;;;;;5094152;28;20194;-82
2022/04/12 03:49:13;;;;;;;7.77;2.30;;;;;;;;;;5093368;28;20252;-82
2022/04/12 03:51:41;;;;;;;7.83;2.63;;;;;;;;;;5094013;28;20203;-82
2022/04/12 03:54:08;;;;;;;6.17;2.10;;;;;;;;;;5093987;28;20205;-81
2022/04/12 03:56:35;;;;;;;7.57;2.43;;;;;;;;;;5093677;28;20234;-82
2022/04/12 03:59:04;;;;;;;8.03;2.30;;;;;;;;;;5093387;28;20267;-82
2022/04/12 04:01:31;;;;;;;4.93;2.20;;;;;;;;;;5093287;28;20202;-82
2022/04/12 04:03:58;;;;;;;5.70;2.30;;;;;;;;;;5093406;28;20688;-81
2022/04/12 04:06:26;;;;;;;7.07;2.50;;;;;;;;;;5093662;28;20214;-81
2022/04/12 04:08:53;;;;;;;5.23;2.17;;;;;;;;;;5093662;28;20281;-81
2022/04/12 04:11:20;;;;;;;4.87;2.43;;;;;;;;;;5093034;28;20230;-81
2022/04/12 04:13:47;;;;;;;6.63;2.33;;;;;;;;;;5093469;28;20234;-81
2022/04/12 04:16:17;;;;;;;9.47;2.87;;;;;;;;;;5093133;28;20656;-82
2022/04/12 04:18:44;;;;;;;4.13;2.30;;;;;;;;;;5092961;28;20247;-82
2022/04/12 04:21:11;;;;;;;7.67;2.57;;;;;;;;;;5093208;28;20230;-81
2022/04/12 04:23:38;;;;;;;4.30;2.40;;;;;;;;;;5093054;28;20690;-80
2022/04/12 04:26:06;;;;;;;7.40;2.50;;;;;;;;;;5093282;28;20606;-82
2022/04/12 04:28:34;;;;;;;7.03;2.80;;;;;;;;;;5092799;28;20218;-82
2022/04/12 04:31:01;;;;;;;7.83;2.20;;;;;;;;;;5098736;28;20202;-82
2022/04/12 04:33:30;;;;;;;8.27;2.40;;;;;;;;;;5111334;28;20232;-81
2022/04/12 04:35:57;;;;;;;11.13;2.77;;;;;;;;;;5112832;28;20669;-80
2022/04/12 04:38:24;;;;;;;6.77;2.87;;;;;;;;;;5112927;28;20780;-79
2022/04/12 04:40:51;;;;;;;7.17;3.10;;;;;;;;;;5113189;28;20303;-81
2022/04/12 04:43:19;;;;;;;7.97;2.80;;;;;;;;;;5112995;28;20229;-80
2022/04/12 04:45:46;;;;;;;6.53;2.63;;;;;;;;;;5113013;28;20236;-81
2022/04/12 04:48:13;;;;;;;8.70;3.00;;;;;;;;;;5113134;28;20281;-81
2022/04/12 04:50:42;;;;;;;7.57;3.07;;;;;;;;;;5113119;28;20292;-80
2022/04/12 04:53:10;;;;;;;7.33;3.07;;;;;;;;;;5113202;28;20285;-81
2022/04/12 04:55:42;;;;;;;7.57;3.00;;;;;;;;;;5112943;28;20226;-81
2022/04/12 04:58:09;;;;;;;6.17;3.10;;;;;;;;;;5100550;28;20233;-80
2022/04/12 05:00:37;;;;;;;9.33;2.93;;;;;;;;;;5092544;28;20240;-80
2022/04/12 05:03:05;;;;;;;5.43;3.00;;;;;;;;;;5092471;28;20254;-81
2022/04/12 05:05:33;;;;;;;4.63;2.63;;;;;;;;;;5091896;28;20244;-81
2022/04/12 05:08:02;;;;;;;9.87;2.87;;;;;;;;;;5091742;28;20295;-81
2022/04/12 05:10:31;;;;;;;5.70;2.60;;;;;;;;;;5092580;28;20208;-80
2022/04/12 05:12:59;;;;;;;7.33;2.80;;;;;;;;;;5092698;28;20202;-80
2022/04/12 05:15:28;;;;;;;5.33;2.67;;;;;;;;;;5092283;28;20229;-79
2022/04/12 05:17:55;;;;;;;8.00;2.93;;;;;;;;;;5092036;28;20320;-80
2022/04/12 05:20:24;;;;;;;7.00;2.53;;;;;;;;;;5092766;28;20288;-81
2022/04/12 05:22:51;;;;;;;5.70;2.60;;;;;;;;;;5092072;28;20228;-82
2022/04/12 05:25:19;;;;;;;8.23;2.73;;;;;;;;;;5092152;28;20234;-80
2022/04/12 05:27:47;;;;;;;5.97;2.40;;;;;;;;;;5073620;28;20311;-79
2022/04/12 05:30:14;;;;;;;5.20;2.83;;;;;;;;;;5071874;28;20259;-79
2022/04/12 05:32:42;;;;;;;6.43;2.50;;;;;;;;;;5072030;28;20198;-80
2022/04/12 05:35:10;;;;;;;8.60;2.70;;;;;;;;;;5071869;28;20291;-80
2022/04/12 05:37:44;;;;;;;6.77;2.57;;;;;;;;;;5071581;28;20273;-81
2022/04/12 05:40:12;;;;;;;7.37;2.77;;;;;;;;;;5072253;28;20287;-81
2022/04/12 05:42:41;;;;;;;5.00;2.40;;;;;;;;;;5071593;28;20671;-80
2022/04/12 05:45:08;;;;;;;4.87;2.43;;;;;;;;;;5071584;28;20238;-79
2022/04/12 05:47:45;;;;;;;8.43;2.40;;;;;;;;;;5073282;28;20292;-79
2022/04/12 05:50:14;;;;;;;8.97;2.93;;;;;;;;;;5076925;28;20211;-79
2022/04/12 05:52:41;;;;;;;5.27;2.27;;;;;;;;;;5095890;28;20229;-80
2022/04/12 05:55:10;;;;;;;5.27;2.47;;;;;;;;;;5096326;28;20623;-81
2022/04/12 05:57:39;;;;;;;8.37;2.60;;;;;;;;;;5102453;28;20202;-79
2022/04/12 06:00:08;;;;;;;7.67;2.50;;;;;;;;;;5093234;28;20232;-79
2022/04/12 06:02:36;;;;;;;9.07;2.70;;;;;;;;;;5089965;28;20214;-75
2022/04/12 06:05:03;;;;;;;8.23;2.63;;;;;;;;;;5098316;28;20660;-75
2022/04/12 06:07:32;;;;;;;5.53;2.60;;;;;;;;;;5099438;28;20317;-75
2022/04/12 06:09:59;;;;;;;8.00;2.50;;;;;;;;;;5095901;28;20205;-75
2022/04/12 06:12:27;;;;;;;5.07;2.33;;;;;;;;;;5098462;28;20308;-75
2022/04/12 06:14:54;;;;;;;7.83;2.43;;;;;;;;;;5099018;28;20278;-75
2022/04/12 06:17:22;;;;;;;4.93;2.60;;;;;;;;;;5095080;28;20225;-74
2022/04/12 06:19:50;;;;;;;4.97;2.47;;;;;;;;;;5094752;28;20705;-75
2022/04/12 06:22:17;;;;;;;8.83;2.80;;;;;;;;;;5109206;28;20232;-75
2022/04/12 06:24:44;;;;;;;6.70;2.70;;;;;;;;;;5111626;28;20312;-75
2022/04/12 06:27:11;;;;;;;8.50;2.50;;;;;;;;;;5094434;28;20238;-75
2022/04/12 06:29:39;;;;;;;7.57;2.53;;;;;;;;;;5093692;28;20190;-75
2022/04/12 06:32:07;;;;;;;7.53;2.70;;;;;;;;;;5102987;28;20202;-75
2022/04/12 06:34:35;;;;;;;9.17;2.60;;;;;;;;;;5109720;28;20289;-75
2022/04/12 06:37:03;;;;;;;8.10;2.40;;;;;;;;;;5102746;28;20312;-75
2022/04/12 06:39:30;;;;;;;5.57;2.70;;;;;;;;;;5095619;28;20308;-75
2022/04/12 06:41:57;;;;;;;7.67;2.83;;;;;;;;;;5106334;28;20233;-75
2022/04/12 06:44:25;;;;;;;7.87;2.60;;;;;;;;;;5105625;28;20240;-76
2022/04/12 06:46:52;;;;;;;9.33;2.80;;;;;;;;;;5096293;28;20226;-75
2022/04/12 06:49:19;;;;;;;5.43;2.40;;;;;;;;;;5095625;28;20277;-76
2022/04/12 06:51:48;;;;;;;6.27;2.50;;;;;;;;;;5098598;28;20293;-75
2022/04/12 06:54:15;;;;;;;8.03;2.60;;;;;;;;;;5097098;28;20236;-75
2022/04/12 06:56:42;;;;;;;4.97;2.37;;;;;;;;;;5112933;28;20232;-75
2022/04/12 06:59:09;;;;;;;8.97;2.57;;;;;;;;;;5103671;28;20221;-75
2022/04/12 07:01:36;;;;;;;5.40;2.40;;;;;;;;;;5108479;28;20320;-75
2022/04/12 07:04:03;;;;;;;6.60;2.23;;;;;;;;;;5100422;28;20281;-74
2022/04/12 07:06:31;;;;;;;8.80;2.27;;;;;;;;;;5113823;28;20296;-75
2022/04/12 07:08:59;;;;;;;5.83;2.27;;;;;;;;;;5110926;28;20273;-75
2022/04/12 07:11:26;;;;;;;6.03;2.20;;;;;;;;;;5107040;28;20705;-74
2022/04/12 07:13:53;;;;;;;6.90;2.70;;;;;;;;;;5114578;28;20805;-75
2022/04/12 07:16:21;;;;;;;12.07;2.90;;;;;;;;;;5106612;28;20237;-75
2022/04/12 07:18:48;;;;;;;5.93;2.20;;;;;;;;;;5107027;28;20261;-75
2022/04/12 07:21:21;;;;;;;5.73;2.20;;;;;;;;;;5114740;27;20204;-75
2022/04/12 07:23:50;;;;;;;6.60;2.70;;;;;;;;;;5107523;28;20705;-74
2022/04/12 07:26:19;;;;;;;9.10;2.73;;;;;;;;;;5103837;28;20197;-75
2022/04/12 07:28:46;;;;;;;7.70;2.60;;;;;;;;;;5114210;28;20260;-75
2022/04/12 07:31:13;;;;;;;11.33;2.83;;;;;;;;;;5107555;28;20225;-80
2022/04/12 07:33:40;;;;;;;5.43;2.43;;;;;;;;;;5114436;28;20309;-80
2022/04/12 07:36:08;;;;;;;10.53;2.63;;;;;;;;;;5114474;28;20324;-79
2022/04/12 07:38:35;;;;;;;7.17;2.40;;;;;;;;;;5113730;28;20333;-80
2022/04/12 07:41:02;;;;;;;7.93;2.83;;;;;;;;;;5113967;28;20293;-80
2022/04/12 07:43:31;;;;;;;6.57;2.53;;;;;;;;;;5112793;28;20236;-80
2022/04/12 07:45:58;;;;;;;5.70;2.30;;;;;;;;;;5101849;28;20686;-80
2022/04/12 07:48:26;;;;;;;6.90;2.10;;;;;;;;;;5093297;28;20248;-79
2022/04/12 07:50:54;;;;;;;7.10;2.47;;;;;;;;;;5099822;28;20236;-79
2022/04/12 07:53:21;;;;;;;7.27;2.20;;;;;;;;;;5093595;28;20233;-79
2022/04/12 07:55:48;;;;;;;6.47;2.70;;;;;;;;;;5093371;28;20221;-79
2022/04/12 07:58:17;;;;;;;7.17;2.53;;;;;;;;;;5093949;28;20234;-81
2022/04/12 08:00:46;;;;;;;8.00;2.17;;;;;;;;;;5093750;28;20224;-80
2022/04/12 08:03:14;;;;;;;5.40;2.40;;;;;;;;;;5093483;28;20234;-79
2022/04/12 08:05:41;;;;;;;8.97;2.80;;;;;;;;;;5093462;28;20222;-79
2022/04/12 08:08:08;;;;;;;8.33;2.50;;;;;;;;;;5093830;28;20237;-79
2022/04/12 08:10:35;;;;;;;8.10;2.77;;;;;;;;;;5091939;28;20198;-80
2022/04/12 08:13:03;;;;;;;6.43;2.30;;;;;;;;;;5093365;28;20241;-80
2022/04/12 08:15:30;;;;;;;10.00;2.70;;;;;;;;;;5096918;28;20732;-80
2022/04/12 08:17:58;;;;;;;9.40;2.70;;;;;;;;;;5092766;28;20241;-80
2022/04/12 08:20:26;;;;;;;8.97;2.43;;;;;;;;;;5093394;28;20851;-80
2022/04/12 08:22:53;;;;;;;12.13;2.67;;;;;;;;;;5084492;28;20230;-80
2022/04/12 08:25:20;;;;;;;8.97;2.53;;;;;;;;;;5101796;28;20246;-80
2022/04/12 08:27:48;;;;;;;9.57;2.70;;;;;;;;;;5094739;28;20234;-79
2022/04/12 08:30:15;;;;;;;8.57;2.47;;;;;;;;;;5087205;28;20284;-80
2022/04/12 08:32:42;;;;;;;10.13;3.03;;;;;;;;;;5111382;28;20267;-81
2022/04/12 08:35:11;;;;;;;12.43;3.07;;;;;;;;;;5104130;28;20237;-80
2022/04/12 08:37:38;;;;;;;7.53;2.90;;;;;;;;;;5112897;28;20673;-80
2022/04/12 08:40:06;;;;;;;6.70;2.80;;;;;;;;;;5099770;28;20222;-80
2022/04/12 08:42:33;;;;;;;10.53;3.50;;;;;;;;;;5100841;28;20279;-80
2022/04/12 08:45:03;;;;;;;7.90;2.43;;;;;;;;;;5092883;28;20226;-80
2022/04/12 08:47:34;;;;;;;7.50;2.50;;;;;;;;;;5093087;28;20241;-80
2022/04/12 08:50:01;;;;;;;7.90;2.70;;;;;;;;;;5093388;28;20222;-80
2022/04/12 08:52:30;;;;;;;8.40;2.50;;;;;;;;;;5103419;28;20247;-80
2022/04/12 08:54:57;;;;;;;8.37;3.20;;;;;;;;;;5094299;28;20689;-81
2022/04/12 08:57:25;;;;;;;6.07;2.70;;;;;;;;;;5089351;28;20282;-82
2022/04/12 08:59:53;;;;;;;5.93;2.70;;;;;;;;;;5071966;28;20266;-81
2022/04/12 09:02:20;;;;;;;6.37;2.60;;;;;;;;;;5072160;28;20238;-81
2022/04/12 09:04:47;;;;;;;9.00;2.90;;;;;;;;;;5098117;28;20241;-81
2022/04/12 09:07:15;;;;;;;8.77;2.87;;;;;;;;;;5112717;28;20229;-80
2022/04/12 09:09:44;;;;;;;8.03;3.13;;;;;;;;;;5112930;28;20193;-81
2022/04/12 09:12:12;;;;;;;7.33;2.60;;;;;;;;;;5112778;28;20292;-81
2022/04/12 09:14:40;;;;;;;9.17;3.03;;;;;;;;;;5112457;28;20233;-81
2022/04/12 09:17:08;;;;;;;6.20;2.90;;;;;;;;;;5112614;28;20229;-82
2022/04/12 09:19:39;;;;;;;7.30;2.67;;;;;;;;;;5094217;28;20229;-82
2022/04/12 09:22:11;;;;;;;9.27;3.00;;;;;;;;;;5091723;28;20293;-81
2022/04/12 09:24:38;;;;;;;10.13;3.20;;;;;;;;;;5091742;28;20567;-81
2022/04/12 09:27:12;;;;;;;12.73;3.13;;;;;;;;;;5097676;28;20676;-81
2022/04/12 09:29:44;;;;;;;10.83;3.00;;;;;;;;;;5092385;28;20541;-81
2022/04/12 09:32:14;;;;;;;7.57;2.73;;;;;;;;;;5091995;28;20233;-81
2022/04/12 09:34:42;;;;;;;10.97;3.37;;;;;;;;;;5092082;28;20205;-81
2022/04/12 09:37:18;;;;;;;11.40;3.30;;;;;;;;;;5092731;28;20234;-81
2022/04/12 09:39:47;;;;;;;9.50;2.70;;;;;;;;;;5103278;28;20716;-82
2022/04/12 09:42:16;;;;;;;8.27;2.87;;;;;;;;;;5101554;28;20271;-81
2022/04/12 09:44:43;;;;;;;10.47;3.40;;;;;;;;;;5099981;28;20234;-82
2022/04/12 09:47:14;;;;;;;10.50;3.67;;;;;;;;;;5100375;28;20230;-81
2022/04/12 09:49:45;;;;;;;8.30;3.30;;;;;;;;;;5103278;28;20194;-81
2022/04/12 09:52:12;;;;;;;8.00;3.00;;;;;;;;;;5102305;28;20205;-79
2022/04/12 09:54:39;;;;;;;7.00;3.10;;;;;;;;;;5099945;28;20230;-79
2022/04/12 09:57:07;;;;;;;11.30;3.10;;;;;;;;;;5103500;28;20749;-80
2022/04/12 09:59:38;;;;;;;10.40;3.50;;;;;;;;;;5092548;28;20668;-80
2022/04/12 10:02:05;;;;;;;12.13;3.53;;;;;;;;;;5099189;28;20261;-80
2022/04/12 10:04:36;;;;;;;9.13;3.10;;;;;;;;;;5111422;28;20248;-81
2022/04/12 10:07:04;;;;;;;9.03;3.17;;;;;;;;;;5096279;28;20195;-80
2022/04/12 10:09:32;;;;;;;10.37;3.17;;;;;;;;;;5108460;28;20281;-79
2022/04/12 10:11:59;;;;;;;12.83;3.90;;;;;;;;;;5097671;28;20232;-79
2022/04/12 10:14:26;;;;;;;10.03;3.70;;;;;;;;;;5111405;28;20638;-80
2022/04/12 10:16:56;;;;;;;10.03;3.90;;;;;;;;;;5098370;28;20245;-79
2022/04/12 10:19:23;;;;;;;9.80;3.47;;;;;;;;;;5098746;28;20246;-78
2022/04/12 10:21:50;;;;;;;13.77;4.17;;;;;;;;;;5107260;28;20294;-80
2022/04/12 10:24:18;;;;;;;12.60;3.73;;;;;;;;;;5099656;28;20229;-81
2022/04/12 10:26:47;;;;;;;9.30;3.70;;;;;;;;;;5106574;28;20225;-80
2022/04/12 10:29:15;;;;;;;7.20;3.40;;;;;;;;;;5095668;28;20709;-81
2022/04/12 10:31:55;;;;;;;9.10;3.80;;;;;;;;;;5098095;28;20740;-81
2022/04/12 10:34:23;;;;;;;9.67;3.83;;;;;;;;;;5073057;28;20211;-82
2022/04/12 10:36:58;;;;;;;10.00;4.20;;;;;;;;;;5097680;28;20264;-81
2022/04/12 10:39:31;;;;;;;9.83;3.90;;;;;;;;;;5103026;28;20253;-81
2022/04/12 10:41:58;;;;;;;13.93;4.93;;;;;;;;;;5094520;28;20226;-81
2022/04/12 10:44:26;;;;;;;8.97;4.40;;;;;;;;;;5102675;28;20203;-80
2022/04/12 10:46:53;;;;;;;10.83;3.93;;;;;;;;;;5109266;28;20202;-80
2022/04/12 10:49:21;;;;;;;8.10;4.63;;;;;;;;;;5108715;28;20629;-80
2022/04/12 10:51:56;;;;;;;10.87;4.83;;;;;;;;;;5100687;28;20193;-81
2022/04/12 10:54:31;;;;;;;10.77;4.07;;;;;;;;;;5094086;28;20696;-80
2022/04/12 10:57:31;;;;;;;11.73;4.63;;;;;;;;;;5098131;28;20225;-80
2022/04/12 11:00:09;;;;;;;13.30;5.83;;;;;;;;;;5062443;28;20266;-79
2022/04/12 11:02:40;;;;;;;10.57;4.80;;;;;;;;;;5055238;28;20222;-79
2022/04/12 11:05:08;;;;;;;12.03;5.00;;;;;;;;;;5056493;28;20717;-80
2022/04/12 11:07:38;;;;;;;12.53;4.60;;;;;;;;;;5067158;28;20694;-79
2022/04/12 11:10:21;;;;;;;7.80;4.47;;;;;;;;;;5059813;28;20196;-78
2022/04/12 11:12:49;;;;;;;10.87;4.83;;;;;;;;;;5051834;28;20681;-78
2022/04/12 11:15:23;;;;;;;11.73;4.70;;;;;;;;;;5052279;28;20203;-77
2022/04/12 11:17:51;;;;;;;10.17;5.13;;;;;;;;;;5060022;28;20269;-78
2022/04/12 11:20:22;;;;;;;13.57;5.33;;;;;;;;;;5057986;28;20302;-79
2022/04/12 11:22:59;;;;;;;11.83;5.47;;;;;;;;;;5051837;28;20204;-78
2022/04/12 11:25:26;;;;;;;8.57;4.97;;;;;;;;;;5051947;28;20647;-78
2022/04/12 11:27:57;;;;;;;11.17;4.67;;;;;;;;;;5062880;28;20782;-79
2022/04/12 11:30:26;;;;;;;14.07;4.63;;;;;;;;;;5064486;28;20202;-78
2022/04/12 11:32:55;;;;;;;8.53;4.47;;;;;;;;;;5096180;28;20190;-77
2022/04/12 11:35:22;;;;;;;11.03;4.63;;;;;;;;;;5106892;28;20688;-79
2022/04/12 11:37:50;;;;;;;9.93;4.60;;;;;;;;;;5114324;28;20279;-78
2022/04/12 11:40:19;;;;;;;11.37;5.03;;;;;;;;;;5114242;28;20304;-80
2022/04/12 11:42:46;;;;;;;8.63;4.77;;;;;;;;;;5114306;28;20633;-75
2022/04/12 11:45:13;;;;;;;12.57;4.80;;;;;;;;;;5114139;28;20229;-76
2022/04/12 11:47:44;;;;;;;9.63;5.30;;;;;;;;;;5113036;28;20225;-74
2022/04/12 11:50:18;;;;;;;12.13;5.37;;;;;;;;;;5099300;27;20598;-76
2022/04/12 11:52:45;;;;;;;10.07;5.03;;;;;;;;;;5094285;28;20309;-76
2022/04/12 11:55:13;;;;;;;11.57;5.57;;;;;;;;;;5092490;28;20195;-76
2022/04/12 11:57:42;;;;;;;13.90;5.30;;;;;;;;;;5093634;28;20199;-76
2022/04/12 12:00:10;;;;;;;11.10;5.30;;;;;;;;;;5092668;28;20250;-75
2022/04/12 12:02:38;;;;;;;12.53;4.93;;;;;;;;;;5092965;28;20234;-75
2022/04/12 12:05:07;;;;;;;8.13;4.17;;;;;;;;;;5097353;28;20599;-75
2022/04/12 12:07:36;;;;;;;11.97;5.53;;;;;;;;;;5073235;28;20234;-75
2022/04/12 12:10:05;;;;;;;11.33;5.50;;;;;;;;;;5073093;28;20753;-75
2022/04/12 12:12:33;;;;;;;12.17;4.97;;;;;;;;;;5078679;28;20202;-75
2022/04/12 12:15:11;;;;;;;10.23;5.70;;;;;;;;;;5093106;28;20252;-75
2022/04/12 12:17:40;;;;;;;9.70;5.10;;;;;;;;;;5098200;28;20286;-75
2022/04/12 12:20:08;;;;;;;11.53;5.63;;;;;;;;;;5098099;28;20215;-75
2022/04/12 12:22:37;;;;;;;10.67;5.40;;;;;;;;;;5087604;28;20206;-75
2022/04/12 12:25:05;;;;;;;8.97;5.10;;;;;;;;;;5093070;28;20238;-74
2022/04/12 12:27:32;;;;;;;9.27;4.77;;;;;;;;;;5093138;28;20662;-75
2022/04/12 12:30:02;;;;;;;9.80;5.03;;;;;;;;;;5092868;28;20194;-74
2022/04/12 12:32:32;;;;;;;10.67;5.23;;;;;;;;;;5100982;28;20226;-75
2022/04/12 12:35:02;;;;;;;13.20;5.63;;;;;;;;;;5092338;28;20570;-75
2022/04/12 12:37:29;;;;;;;11.67;5.43;;;;;;;;;;5091721;28;20238;-75
2022/04/12 12:39:57;;;;;;;9.50;5.50;;;;;;;;;;5092356;28;20313;-76
2022/04/12 12:42:24;;;;;;;11.63;5.93;;;;;;;;;;5092604;28;20229;-76
2022/04/12 12:44:52;;;;;;;12.60;7.03;;;;;;;;;;5099955;28;20202;-73
2022/04/12 12:47:24;;;;;;;13.97;7.33;;;;;;;;;;5112717;28;20293;-74
2022/04/12 12:49:52;;;;;;;14.77;6.83;;;;;;;;;;5107161;28;20623;-73
2022/04/12 12:52:19;;;;;;;11.37;6.47;;;;;;;;;;5101001;28;20202;-74
2022/04/12 12:54:55;;;;;;;11.47;6.50;;;;;;;;;;5100634;28;20194;-75
2022/04/12 12:57:36;;;;;;;13.77;6.17;;;;;;;;;;5099813;28;20214;-74
2022/04/12 13:00:05;;;;;;;11.47;6.80;;;;;;;;;;5093818;28;20245;-74
2022/04/12 13:02:35;;;;;;;8.80;6.30;;;;;;;;;;5100207;28;20209;-74
2022/04/12 13:05:04;;;;;;;10.53;6.50;;;;;;;;;;5104112;28;20193;-75
2022/04/12 13:07:32;;;;;;;12.03;6.20;;;;;;;;;;5094977;28;20233;-74
2022/04/12 13:10:06;;;;;;;10.80;6.27;;;;;;;;;;5093338;28;20198;-75
2022/04/12 13:12:34;;;;;;;11.77;6.00;;;;;;;;;;5095166;28;20285;-75
2022/04/12 13:15:01;;;;;;;13.80;6.00;;;;;;;;;;5093696;28;20195;-75
2022/04/12 13:17:28;;;;;;;10.67;6.07;;;;;;;;;;5108275;28;20200;-75
2022/04/12 13:19:57;;;;;;;12.87;6.07;;;;;;;;;;5095279;28;20225;-74
2022/04/12 13:22:25;;;;;;;12.90;6.23;;;;;;;;;;5089888;28;20300;-74
2022/04/12 13:24:52;;;;;;;15.23;6.77;;;;;;;;;;5091042;28;20295;-75
2022/04/12 13:27:19;;;;;;;11.03;6.13;;;;;;;;;;5092322;28;20285;-75
2022/04/12 13:29:47;;;;;;;11.13;6.10;;;;;;;;;;5091860;28;20200;-75
2022/04/12 13:32:14;;;;;;;14.60;7.33;;;;;;;;;;5092537;28;20205;-74
2022/04/12 13:34:41;;;;;;;12.33;6.80;;;;;;;;;;5103794;28;20281;-75
2022/04/12 13:37:10;;;;;;;12.10;6.33;;;;;;;;;;5112076;28;20724;-75
2022/04/12 13:39:38;;;;;;;9.97;6.13;;;;;;;;;;5112681;28;20243;-74
2022/04/12 13:42:05;;;;;;;6.97;4.10;;;;;;;;;;5100416;28;20317;-74
2022/04/12 13:44:32;;;;;;;9.63;3.40;;;;;;;;;;5089486;28;20230;-74
2022/04/12 13:47:00;;;;;;;4.17;2.53;;;;;;;;;;5092200;28;20289;-75
2022/04/12 13:49:27;;;;;;;5.10;1.93;;;;;;;;;;5090997;28;20198;-74
2022/04/12 13:51:55;;;;;;;3.13;1.90;;;;;;;;;;5094174;28;20217;-75
2022/04/12 13:54:23;;;;;;;2.43;1.50;;;;;;;;;;5090965;28;20641;-74
2022/04/12 13:56:51;;;;;;;3.53;1.70;;;;;;;;;;5092318;28;20293;-75
2022/04/12 13:59:18;;;;;;;2.63;1.47;;;;;;;;;;5095962;28;20838;-75
2022/04/12 14:01:45;;;;;;;3.30;1.40;;;;;;;;;;5095250;28;20305;-75
2022/04/12 14:04:13;;;;;;;2.80;1.30;;;;;;;;;;5091590;28;20218;-74
2022/04/12 14:06:41;;;;;;;3.87;1.43;;;;;;;;;;5091688;28;20230;-74
2022/04/12 14:09:08;;;;;;;2.13;1.10;;;;;;;;;;5093592;28;20206;-75
2022/04/12 14:11:37;;;;;;;2.83;1.10;;;;;;;;;;5095704;28;20233;-75
2022/04/12 14:14:07;;;;;;;2.57;1.40;;;;;;;;;;5099173;28;20286;-74
2022/04/12 14:16:34;;;;;;;3.80;1.67;;;;;;;;;;5100119;28;20198;-74
2022/04/12 14:19:01;;;;;;;4.33;2.80;;;;;;;;;;5096476;28;20190;-74
2022/04/12 14:21:29;;;;;;;5.30;2.97;;;;;;;;;;5100576;28;20648;-75
2022/04/12 14:23:56;;;;;;;3.97;2.10;;;;;;;;;;5101570;28;20640;-75
2022/04/12 14:26:23;;;;;;;3.97;1.80;;;;;;;;;;5100521;28;20284;-74
2022/04/12 14:28:52;;;;;;;3.33;2.23;;;;;;;;;;5097603;28;20264;-73
2022/04/12 14:31:19;;;;;;;4.00;1.60;;;;;;;;;;5099592;28;20230;-74
2022/04/12 14:33:46;;;;;;;3.43;1.60;;;;;;;;;;5094971;28;20241;-75
2022/04/12 14:36:14;;;;;;;3.53;1.60;;;;;;;;;;5094792;28;20312;-74
2022/04/12 14:38:42;;;;;;;3.30;1.53;;;;;;;;;;5095663;28;20255;-75
2022/04/12 14:41:09;;;;;;;4.90;1.73;;;;;;;;;;5094612;28;20643;-75
2022/04/12 14:43:36;;;;;;;5.77;2.20;;;;;;;;;;5099779;28;20229;-75
2022/04/12 14:46:05;;;;;;;5.10;2.90;;;;;;;;;;5094896;28;20209;-75
2022/04/12 14:48:32;;;;;;;3.73;1.90;;;;;;;;;;5094296;28;20579;-75